Airport ID:6TE6
Update Time (UTC):25/10/2020 02:20
Wind Speed (Knots):7
Wind Direction (Magnetic):110
Temperature (°C):13
Dew Point (°C):5
Humidity (%):61
Altimeter (inHg):29.89
Density Altitude (Feet):
Visibility:10+
Clouds (Hundreds of feet):CLR
Present Weather:
METAR:METAR 6TE6 250220Z AUTO 11007KT 10SM CLR 13/05 A2989 RMK A01

The data displayed is for advisory purposes only and is not to be used for flight planning or operations.